Time;durP1;ratioP1;P1;durP2;ratioP2;P2;SDS_P1;SDS_P2;PMS_P1;PMS_P2;Temp;Humidity;BMP_temperature;BMP_pressure;BME280_temperature;BME280_humidity;BME280_pressure;Samples;Min_cycle;Max_cycle;Signal;HPM_P1;HPM_P2
2020/12/23 00:01:26;;;;;;;46.25;22.02;;;;;;;-6.74;91.04;102278.30;1786509;80;21538;-87
2020/12/23 00:03:56;;;;;;;41.42;20.85;;;;;;;-6.74;91.25;102283.37;1786430;80;21590;-88
2020/12/23 00:06:34;;;;;;;40.90;20.10;;;;;;;-6.73;91.30;102282.55;1786432;80;21203;-87
2020/12/23 00:09:06;;;;;;;37.93;19.52;;;;;;;-6.75;91.05;102277.01;1768390;79;21185;-88
2020/12/23 00:11:34;;;;;;;38.98;19.75;;;;;;;-6.81;91.03;102279.82;1739733;82;21136;-88
2020/12/23 00:14:03;;;;;;;42.48;20.10;;;;;;;-6.82;91.26;102278.14;1750041;82;21146;-88
2020/12/23 00:16:31;;;;;;;43.98;20.62;;;;;;;-6.78;91.53;102277.80;1747291;81;21155;-87
2020/12/23 00:18:59;;;;;;;47.35;21.07;;;;;;;-6.73;91.68;102277.48;1755445;80;21372;-87
2020/12/23 00:21:27;;;;;;;36.30;18.17;;;;;;;-6.70;91.60;102273.77;1779365;80;21186;-87
2020/12/23 00:23:55;;;;;;;45.63;21.37;;;;;;;-6.67;91.70;102263.68;1779467;80;21183;-87
2020/12/23 00:26:53;;;;;;;44.98;20.32;;;;;;;-6.64;91.49;102262.05;1779390;80;21147;-87
2020/12/23 00:29:21;;;;;;;37.30;19.25;;;;;;;-6.66;91.39;102255.69;1759927;80;21101;-86
2020/12/23 00:31:53;;;;;;;41.28;20.43;;;;;;;-6.63;91.53;102246.02;1740139;82;21368;-87
2020/12/23 00:34:28;;;;;;;44.30;21.30;;;;;;;-6.64;91.39;102247.69;1752028;81;21232;-87
2020/12/23 00:36:59;;;;;;;43.50;21.68;;;;;;;-6.64;91.52;102250.64;1755356;81;21181;-86
2020/12/23 00:39:27;;;;;;;42.70;20.65;;;;;;;-6.63;91.43;102251.94;1757740;80;21197;-86
2020/12/23 00:41:55;;;;;;;48.92;22.20;;;;;;;-6.64;91.43;102245.58;1786739;80;21123;-87
2020/12/23 00:44:25;;;;;;;41.80;19.50;;;;;;;-6.63;91.68;102246.02;1786791;80;21434;-87
2020/12/23 00:46:57;;;;;;;43.68;20.08;;;;;;;-6.59;91.74;102241.45;1786602;80;21185;-87
2020/12/23 00:49:29;;;;;;;40.55;18.70;;;;;;;-6.55;91.77;102248.31;1767362;80;21151;-87
2020/12/23 00:51:57;;;;;;;39.75;20.82;;;;;;;-6.55;91.61;102248.31;1750125;81;21110;-87
2020/12/23 00:54:27;;;;;;;41.08;20.72;;;;;;;-6.56;91.38;102248.71;1782688;80;21159;-87
2020/12/23 00:56:57;;;;;;;36.53;19.48;;;;;;;-6.58;91.28;102243.17;1782591;80;21357;-86
2020/12/23 00:59:25;;;;;;;41.45;19.15;;;;;;;-6.57;91.79;102241.08;1782857;78;21114;-87
2020/12/23 01:01:59;;;;;;;52.62;22.90;;;;;;;-6.51;92.18;102242.48;1782768;80;21141;-87
2020/12/23 01:04:28;;;;;;;46.80;21.35;;;;;;;-6.47;91.66;102237.06;1782592;80;21177;-87
2020/12/23 01:06:58;;;;;;;39.55;20.60;;;;;;;-6.51;91.50;102233.61;1782793;80;21624;-87
2020/12/23 01:09:53;;;;;;;46.15;21.25;;;;;;;-6.50;91.63;102237.47;1782617;78;21189;-87
2020/12/23 01:12:29;;;;;;;48.42;21.45;;;;;;;-6.49;91.69;102238.30;1782512;80;21192;-87
2020/12/23 01:14:57;;;;;;;43.70;21.62;;;;;;;-6.44;91.76;102239.67;1782041;80;21158;-86
2020/12/23 01:17:25;;;;;;;44.58;20.90;;;;;;;-6.44;91.54;102237.98;1782657;80;21585;-87
2020/12/23 01:19:53;;;;;;;41.00;20.77;;;;;;;-6.43;92.01;102225.75;1782654;80;21151;-87
2020/12/23 01:22:24;;;;;;;38.73;20.60;;;;;;;-6.36;92.16;102221.25;1782760;79;21370;-87
2020/12/23 01:24:51;;;;;;;39.98;20.20;;;;;;;-6.35;91.74;102216.63;1776040;79;21131;-87
2020/12/23 01:27:19;;;;;;;36.63;17.82;;;;;;;-6.35;91.74;102212.83;1760760;81;21118;-87
2020/12/23 01:29:49;;;;;;;37.60;18.25;;;;;;;-6.35;91.81;102203.95;1761085;80;21126;-87
2020/12/23 01:32:17;;;;;;;34.78;18.15;;;;;;;-6.29;92.35;102201.12;1761147;81;21547;-87
2020/12/23 01:34:46;;;;;;;45.08;20.62;;;;;;;-6.22;92.91;102194.92;1755371;81;21174;-87
2020/12/23 01:37:14;;;;;;;39.75;20.52;;;;;;;-6.14;92.57;102194.21;1725815;82;21586;-87
2020/12/23 01:39:42;;;;;;;38.38;19.15;;;;;;;-6.15;92.11;102193.77;1778611;79;21164;-87
2020/12/23 01:42:12;;;;;;;36.75;17.87;;;;;;;-6.12;92.38;102192.14;1775533;80;21179;-87
2020/12/23 01:44:41;;;;;;;36.30;18.80;;;;;;;-6.05;92.47;102182.55;1798602;79;21131;-87
2020/12/23 01:47:18;;;;;;;42.75;19.65;;;;;;;-6.00;92.61;102181.38;1798330;79;21327;-87
2020/12/23 01:49:53;;;;;;;42.95;20.02;;;;;;;-6.00;92.09;102180.10;1800497;79;21092;-87
2020/12/23 01:52:23;;;;;;;37.15;19.30;;;;;;;-6.00;91.92;102180.53;1791760;79;21125;-86
2020/12/23 01:54:55;;;;;;;37.48;17.40;;;;;;;-5.98;91.98;102186.04;1745345;80;21593;-87
2020/12/23 01:57:27;;;;;;;36.13;18.55;;;;;;;-5.95;92.26;102183.57;1743947;81;21169;-87
2020/12/23 02:00:31;;;;;;;36.63;18.75;;;;;;;-5.89;92.25;102184.95;1757038;79;21566;-87
2020/12/23 02:03:04;;;;;;;39.98;19.57;;;;;;;-5.82;92.52;102185.92;1761903;81;21178;-87
2020/12/23 02:05:37;;;;;;;36.05;19.23;;;;;;;-5.74;92.75;102180.57;1761174;80;21150;-87
2020/12/23 02:08:12;;;;;;;36.33;19.32;;;;;;;-5.68;92.70;102180.23;1761972;81;21171;-87
2020/12/23 02:10:41;;;;;;;35.03;18.15;;;;;;;-5.65;92.49;102173.95;1741439;81;21150;-87
2020/12/23 02:13:09;;;;;;;44.45;19.73;;;;;;;-5.61;92.52;102169.34;1730072;82;21337;-87
2020/12/23 02:15:43;;;;;;;38.65;21.25;;;;;;;-5.57;92.54;102165.63;1711837;83;21547;-87
2020/12/23 02:18:14;;;;;;;34.90;18.95;;;;;;;-5.56;92.13;102163.53;1730031;82;21488;-87
2020/12/23 02:20:42;;;;;;;39.18;19.95;;;;;;;-5.58;91.83;102154.18;1711738;82;21151;-87
2020/12/23 02:23:10;;;;;;;40.92;20.90;;;;;;;-5.61;91.27;102153.69;1730136;82;21563;-87
2020/12/23 02:25:41;;;;;;;38.48;20.88;;;;;;;-5.65;91.12;102162.09;1711747;83;22378;-87
2020/12/23 02:28:10;;;;;;;43.85;20.65;;;;;;;-5.67;91.08;102163.75;1730097;82;21381;-87
2020/12/23 02:30:45;;;;;;;36.53;19.37;;;;;;;-5.71;90.90;102157.77;1752934;80;21145;-87
2020/12/23 02:33:13;;;;;;;39.55;20.17;;;;;;;-5.69;91.24;102159.08;1750247;82;21139;-87
2020/12/23 02:35:43;;;;;;;31.55;16.48;;;;;;;-5.64;91.63;102157.86;1764603;80;21453;-87
2020/12/23 02:38:13;;;;;;;43.13;21.07;;;;;;;-5.61;91.98;102165.11;1774332;80;21199;-86
2020/12/23 02:40:48;;;;;;;38.92;20.15;;;;;;;-5.60;91.57;102155.41;1791762;80;21134;-86
2020/12/23 02:43:16;;;;;;;37.50;20.48;;;;;;;-5.59;91.58;102158.81;1792268;80;21142;-86
2020/12/23 02:45:45;;;;;;;34.43;18.77;;;;;;;-5.59;91.59;102153.73;1792421;80;21138;-86
2020/12/23 02:48:41;;;;;;;42.30;20.08;;;;;;;-5.58;91.68;102155.02;1792458;80;21119;-87
2020/12/23 02:51:13;;;;;;;34.30;17.55;;;;;;;-5.55;91.59;102160.56;1792523;80;22120;-87
2020/12/23 02:53:47;;;;;;;36.00;19.17;;;;;;;-5.53;91.67;102153.83;1792390;80;21067;-87
2020/12/23 02:56:15;;;;;;;34.80;19.48;;;;;;;-5.52;91.85;102149.59;1756288;80;21163;-86
2020/12/23 02:58:43;;;;;;;35.35;18.87;;;;;;;-5.51;91.95;102144.56;1755409;80;21139;-87
2020/12/23 03:01:12;;;;;;;34.27;18.23;;;;;;;-5.49;92.09;102140.38;1738214;82;21531;-87
2020/12/23 03:03:41;;;;;;;32.10;17.48;;;;;;;-5.44;92.39;102141.69;1738199;82;22135;-86
2020/12/23 03:06:09;;;;;;;28.27;16.52;;;;;;;-5.36;92.78;102138.85;1728405;82;21078;-87
2020/12/23 03:08:37;;;;;;;31.93;17.92;;;;;;;-5.27;92.99;102144.51;1777152;79;21123;-86
2020/12/23 03:11:05;;;;;;;42.45;20.23;;;;;;;-5.20;92.98;102142.50;1782553;80;21245;-86
2020/12/23 03:14:01;;;;;;;39.38;19.57;;;;;;;-5.18;92.58;102142.11;1801557;79;21120;-87
2020/12/23 03:16:29;;;;;;;38.33;20.12;;;;;;;-5.17;92.13;102142.95;1792090;80;21174;-86
2020/12/23 03:19:27;;;;;;;33.98;18.95;;;;;;;-5.20;91.76;102137.81;1791577;80;21130;-86
2020/12/23 03:21:55;;;;;;;32.95;18.07;;;;;;;-5.24;91.68;102142.00;1792143;80;21171;-87
2020/12/23 03:24:23;;;;;;;32.90;19.30;;;;;;;-5.22;91.59;102141.61;1792135;80;21143;-87
2020/12/23 03:26:51;;;;;;;37.90;18.95;;;;;;;-5.23;91.50;102137.36;1792157;80;21122;-86
2020/12/23 03:29:20;;;;;;;35.50;18.80;;;;;;;-5.24;91.25;102139.45;1780264;80;21571;-86
2020/12/23 03:31:48;;;;;;;41.35;20.97;;;;;;;-5.25;91.43;102142.42;1755877;81;21072;-86
2020/12/23 03:34:17;;;;;;;35.00;19.55;;;;;;;-5.25;90.95;102141.59;1755792;81;21136;-86
2020/12/23 03:36:45;;;;;;;39.10;20.52;;;;;;;-5.29;90.92;102146.16;1743889;81;21262;-87
2020/12/23 03:39:13;;;;;;;38.60;20.08;;;;;;;-5.33;90.41;102148.23;1742656;80;21166;-87
2020/12/23 03:41:41;;;;;;;35.68;19.92;;;;;;;-5.42;90.26;102149.80;1742311;82;21564;-86
2020/12/23 03:44:09;;;;;;;37.42;19.87;;;;;;;-5.51;90.15;102144.56;1742256;82;21112;-86
2020/12/23 03:46:41;;;;;;;40.17;20.15;;;;;;;-5.58;90.03;102142.76;1742406;81;21134;-87
2020/12/23 03:49:10;;;;;;;38.88;19.62;;;;;;;-5.62;90.12;102133.37;1742385;80;21067;-87
2020/12/23 03:51:41;;;;;;;34.92;19.05;;;;;;;-5.65;90.22;102140.52;1742551;82;21190;-86
2020/12/23 03:54:09;;;;;;;35.75;18.98;;;;;;;-5.65;90.69;102130.38;1742666;82;21368;-86
2020/12/23 03:56:39;;;;;;;34.23;17.75;;;;;;;-5.60;91.48;102124.10;1742457;81;21134;-86
2020/12/23 03:59:11;;;;;;;35.98;19.45;;;;;;;-5.52;91.95;102131.82;1748154;80;21115;-86
2020/12/23 04:05:46;;;;;;;35.60;18.35;;;;;;;-5.49;91.55;102131.89;1773180;81;21167;-86
2020/12/23 04:08:20;;;;;;;31.12;17.05;;;;;;;-5.43;92.24;102130.30;1773347;80;21193;-86
2020/12/23 04:10:54;;;;;;;34.27;19.55;;;;;;;-5.38;92.68;102132.92;1746354;81;21152;-86
2020/12/23 04:13:23;;;;;;;33.63;18.42;;;;;;;-5.32;92.53;102137.22;1742541;82;21171;-86
2020/12/23 04:15:55;;;;;;;35.90;18.50;;;;;;;-5.29;92.68;102133.46;1742551;81;21144;-86
2020/12/23 04:18:22;;;;;;;34.98;19.27;;;;;;;-5.26;92.77;102133.52;1742553;82;21108;-86
2020/12/23 04:20:51;;;;;;;29.63;17.62;;;;;;;-5.19;93.08;102130.64;1742582;82;21384;-86
2020/12/23 04:23:19;;;;;;;34.48;19.52;;;;;;;-5.17;92.82;102126.05;1742611;81;21218;-86
2020/12/23 04:25:54;;;;;;;34.13;19.65;;;;;;;-5.16;92.75;102127.72;1742479;82;21148;-87
2020/12/23 04:28:26;;;;;;;35.90;20.23;;;;;;;-5.14;92.67;102125.23;1742548;82;21168;-87
2020/12/23 04:30:54;;;;;;;32.60;18.73;;;;;;;-5.12;92.65;102126.08;1769383;80;21159;-87
2020/12/23 04:33:28;;;;;;;27.22;16.50;;;;;;;-5.13;92.26;102121.43;1773155;81;22111;-86
2020/12/23 04:35:59;;;;;;;127.92;53.38;;;;;;;-5.13;92.21;102130.75;1773024;81;21159;-87
2020/12/23 04:38:29;;;;;;;55.75;27.55;;;;;;;-5.14;91.82;102131.15;1773156;80;21159;-87
2020/12/23 04:40:57;;;;;;;39.38;20.23;;;;;;;-5.15;91.87;102133.67;1745767;80;21174;-87
2020/12/23 04:43:25;;;;;;;37.60;19.05;;;;;;;-5.14;91.78;102136.66;1742473;82;21526;-87
2020/12/23 04:46:18;;;;;;;39.78;19.45;;;;;;;-5.13;91.88;102134.56;1742309;82;21531;-88
2020/12/23 04:48:57;;;;;;;33.90;18.10;;;;;;;-5.09;92.26;102135.03;1739276;82;21175;-89
2020/12/23 04:51:36;;;;;;;35.58;18.95;;;;;;;-5.03;92.42;102135.54;1787943;80;21167;-88
2020/12/23 04:54:08;;;;;;;34.27;17.73;;;;;;;-5.06;91.80;102132.55;1788453;80;21166;-88
2020/12/23 04:56:38;;;;;;;31.00;16.52;;;;;;;-5.13;92.02;102132.86;1788227;80;21174;-88
2020/12/23 05:03:12;;;;;;;33.33;17.48;;;;;;;-5.14;92.53;102133.69;1745945;81;21179;-86
2020/12/23 05:05:41;;;;;;;33.10;17.20;;;;;;;-5.13;92.36;102129.05;1772357;79;21198;-88
2020/12/23 05:16:42;;;;;;;33.55;16.50;;;;;;;-5.25;92.80;102120.84;1778609;80;21671;-87
2020/12/23 05:19:42;;;;;;;29.80;16.23;;;;;;;-5.26;93.00;102117.02;1810870;78;21139;-88
2020/12/23 05:22:18;;;;;;;26.30;14.58;;;;;;;-5.25;93.34;102127.19;1740170;81;21183;-87
2020/12/23 05:24:52;;;;;;;28.92;16.62;;;;;;;-5.19;93.63;102125.56;1772255;80;21135;-87
2020/12/23 05:30:54;;;;;;;34.75;15.65;;;;;;;-5.06;94.04;102117.30;1796437;78;22202;-87
2020/12/23 05:33:30;;;;;;;29.40;15.68;;;;;;;-5.06;93.49;102121.11;1772201;81;21143;-87
2020/12/23 05:36:08;;;;;;;29.67;16.12;;;;;;;-5.10;93.22;102121.48;1770560;80;21152;-87
2020/12/23 05:46:59;;;;;;;27.85;14.65;;;;;;;-5.14;93.20;102122.69;1772401;81;21163;-87
2020/12/23 05:49:56;;;;;;;27.50;14.80;;;;;;;-5.16;93.04;102126.88;1757802;80;21180;-87
2020/12/23 05:52:26;;;;;;;26.37;14.90;;;;;;;-5.19;93.01;102127.70;1745898;81;21163;-88
2020/12/23 05:54:54;;;;;;;26.85;14.28;;;;;;;-5.18;93.10;102129.41;1746527;80;21157;-87
2020/12/23 06:04:46;;;;;;;27.67;15.30;;;;;;;-5.17;93.47;102128.59;1766502;80;21600;-86
2020/12/23 06:07:14;;;;;;;29.77;16.65;;;;;;;-5.14;93.74;102130.31;1759199;80;21511;-87
2020/12/23 06:14:23;;;;;;;24.35;13.62;;;;;;;-5.09;93.74;102125.70;1742643;82;21174;-87
2020/12/23 06:17:24;;;;;;;24.55;13.83;;;;;;;-5.02;94.16;102129.20;1758018;80;21340;-87
2020/12/23 06:24:17;;;;;;;33.95;16.75;;;;;;;-5.00;93.50;102120.31;1742611;82;21148;-89
2020/12/23 06:26:55;;;;;;;32.65;15.43;;;;;;;-5.08;93.46;102121.06;1768950;81;21155;-89
2020/12/23 06:29:33;;;;;;;34.13;15.48;;;;;;;-4.97;96.05;102116.16;1773118;81;21128;-88
2020/12/23 06:32:09;;;;;;;31.68;16.48;;;;;;;-4.73;97.85;102114.77;1773266;81;22091;-89
2020/12/23 06:46:16;;;;;;;35.28;16.15;;;;;;;-3.92;100.00;102117.75;1742585;82;21167;-90
2020/12/23 06:53:07;;;;;;;35.80;18.25;;;;;;;-3.56;100.00;102110.41;1771206;81;21013;-89
2020/12/23 07:00:24;;;;;;;34.08;15.70;;;;;;;-3.52;100.00;102111.72;1795484;79;21123;-89
2020/12/23 07:06:49;;;;;;;34.03;17.82;;;;;;;-3.67;99.16;102108.63;1796614;79;22262;-91
2020/12/23 07:13:41;;;;;;;33.65;16.50;;;;;;;-3.68;99.34;102106.08;1781684;80;21096;-91
2020/12/23 07:20:54;;;;;;;31.82;17.60;;;;;;;-3.66;98.73;102104.41;1781781;80;21143;-91
2020/12/23 07:27:24;;;;;;;32.88;16.70;;;;;;;-3.56;98.67;102104.05;1776719;80;21151;-90
2020/12/23 07:34:20;;;;;;;32.13;16.17;;;;;;;-3.57;97.95;102101.06;1741580;82;21199;-90
2020/12/23 07:36:54;;;;;;;30.75;16.15;;;;;;;-3.70;96.83;102103.93;1763021;79;21515;-90
2020/12/23 07:39:52;;;;;;;31.87;17.37;;;;;;;-3.76;96.56;102102.61;1769417;81;21202;-89
2020/12/23 07:46:45;;;;;;;30.95;16.57;;;;;;;-3.91;95.79;102104.19;1784003;80;21224;-90
2020/12/23 07:53:13;;;;;;;30.35;15.53;;;;;;;-4.02;96.35;102114.28;1781342;80;21545;-89
2020/12/23 08:04:08;;;;;;;29.07;16.80;;;;;;;-4.01;96.54;102114.72;1769463;80;21120;-90
2020/12/23 08:18:06;;;;;;;28.15;15.32;;;;;;;-4.04;96.15;102113.80;1797390;79;21152;-89
2020/12/23 08:25:16;;;;;;;26.35;16.27;;;;;;;-4.08;95.67;102098.92;1802022;79;21139;-91
2020/12/23 08:36:31;;;;;;;25.00;14.80;;;;;;;-3.99;94.99;102081.20;1741418;82;21152;-91
2020/12/23 08:47:33;;;;;;;25.45;14.07;;;;;;;-3.96;94.50;102074.88;1736492;81;21655;-90
2020/12/23 08:54:24;;;;;;;28.38;15.53;;;;;;;-3.93;94.50;102066.41;1772343;81;21345;-91
2020/12/23 09:01:25;;;;;;;28.52;15.70;;;;;;;-3.94;93.83;102056.23;1772318;81;21194;-90
2020/12/23 09:12:07;;;;;;;28.47;16.12;;;;;;;-3.73;94.84;102050.45;1758579;81;21144;-90
2020/12/23 09:18:58;;;;;;;26.27;14.65;;;;;;;-3.70;93.94;102045.37;1747019;81;21172;-90
2020/12/23 09:25:49;;;;;;;28.20;14.00;;;;;;;-3.58;93.72;102033.14;1760752;81;21148;-90
2020/12/23 09:32:52;;;;;;;26.25;14.63;;;;;;;-3.56;92.96;102020.00;1730341;83;21164;-93
2020/12/23 09:35:26;;;;;;;24.65;14.70;;;;;;;-3.50;93.11;102019.63;1711903;83;21127;-93
2020/12/23 09:59:36;;;;;;;25.02;14.83;;;;;;;-3.11;92.74;102010.89;1731692;79;21143;-92
2020/12/23 10:10:32;;;;;;;27.48;15.45;;;;;;;-3.07;91.66;102002.83;1715698;82;21211;-90
2020/12/23 10:16:51;;;;;;;23.10;13.58;;;;;;;-3.05;91.71;101990.95;1700340;81;21174;-90
2020/12/23 10:19:54;;;;;;;27.48;14.87;;;;;;;-3.03;91.55;101991.81;1686869;83;21511;-90
2020/12/23 10:26:26;;;;;;;24.90;14.30;;;;;;;-2.98;91.92;101993.95;1711712;81;21424;-92
2020/12/23 10:29:04;;;;;;;25.77;15.65;;;;;;;-2.99;91.41;101982.48;1706203;82;21465;-89
2020/12/23 10:39:24;;;;;;;23.52;14.03;;;;;;;-3.03;91.53;101977.36;1652387;83;21285;-93
2020/12/23 10:41:54;;;;;;;27.77;15.65;;;;;;;-2.99;91.72;101974.40;1708216;81;21628;-93
2020/12/23 10:55:48;;;;;;;27.37;14.38;;;;;;;-2.82;91.05;101960.45;1720528;81;21167;-90
2020/12/23 10:58:29;;;;;;;24.60;15.18;;;;;;;-2.76;91.38;101957.03;1735610;81;21162;-90
2020/12/23 11:04:47;;;;;;;22.82;14.13;;;;;;;-2.67;91.30;101958.33;1697857;83;21247;-89
2020/12/23 11:07:46;;;;;;;20.52;13.00;;;;;;;-2.66;91.20;101957.92;1675943;83;21126;-90
2020/12/23 11:14:04;;;;;;;26.17;14.75;;;;;;;-2.62;90.74;101952.83;1666870;81;21223;-90
2020/12/23 11:17:26;;;;;;;24.98;14.47;;;;;;;-2.62;90.38;101949.00;1661747;85;21509;-91
2020/12/23 11:23:59;;;;;;;24.85;14.05;;;;;;;-2.61;90.53;101941.78;1710228;80;21153;-90
2020/12/23 11:26:37;;;;;;;24.82;14.13;;;;;;;-2.62;90.02;101940.08;1722569;82;21169;-90
2020/12/23 11:32:55;;;;;;;21.20;11.60;;;;;;;-2.55;90.35;101944.33;1690530;82;21236;-90
2020/12/23 11:35:47;;;;;;;19.45;10.13;;;;;;;-2.50;89.61;101938.37;1703261;82;21112;-90
2020/12/23 11:41:56;;;;;;;15.60;9.20;;;;;;;-2.53;88.93;101934.12;1713023;80;20532;-90
2020/12/23 11:44:55;;;;;;;17.30;9.60;;;;;;;-2.54;88.61;101928.18;1703986;82;21083;-91
2020/12/23 11:47:23;;;;;;;14.75;9.38;;;;;;;-2.54;88.29;101927.31;1632656;85;21397;-89
2020/12/23 11:57:32;;;;;;;13.13;7.80;;;;;;;-2.47;87.97;101929.45;1713473;80;21115;-90
2020/12/23 12:00:26;;;;;;;13.03;7.72;;;;;;;-2.52;87.52;101932.00;1702747;83;21591;-90
2020/12/23 12:10:28;;;;;;;12.07;6.87;;;;;;;-2.71;88.05;101927.31;1703065;81;21574;-89
2020/12/23 12:13:24;;;;;;;11.85;6.22;;;;;;;-2.73;88.03;101931.55;1713925;82;21103;-89
2020/12/23 12:19:56;;;;;;;12.40;5.90;;;;;;;-2.68;87.66;101940.05;1703126;82;21095;-90
2020/12/23 12:22:50;;;;;;;9.45;5.95;;;;;;;-2.65;87.27;101931.57;1715539;80;21591;-90
2020/12/23 12:29:14;;;;;;;7.47;4.10;;;;;;;-2.58;86.91;101929.45;1728155;80;21305;-91
2020/12/23 12:35:46;;;;;;;7.00;4.42;;;;;;;-2.60;86.22;101924.33;1660019;83;21269;-92
2020/12/23 12:38:14;;;;;;;7.78;4.65;;;;;;;-2.64;85.85;101919.25;1698173;82;21214;-92
2020/12/23 12:40:42;;;;;;;6.50;4.58;;;;;;;-2.69;85.69;101916.70;1694582;83;21210;-92
2020/12/23 12:46:56;;;;;;;11.83;5.92;;;;;;;-2.68;86.10;101926.02;1656400;85;21313;-93
2020/12/23 12:49:25;;;;;;;10.95;6.35;;;;;;;-2.66;86.25;101927.31;1713291;81;21186;-92
2020/12/23 12:51:53;;;;;;;8.03;4.95;;;;;;;-2.65;86.30;101918.38;1713304;82;21215;-92
2020/12/23 12:54:29;;;;;;;12.65;5.97;;;;;;;-2.62;86.14;101920.95;1691610;83;21242;-93
2020/12/23 12:57:06;;;;;;;9.53;5.55;;;;;;;-2.61;86.05;101925.20;1713914;82;21189;-91
2020/12/23 12:59:46;;;;;;;9.03;4.90;;;;;;;-2.60;86.47;101926.88;1706421;82;21119;-91
2020/12/23 13:02:14;;;;;;;10.28;5.22;;;;;;;-2.59;86.54;101929.02;1709752;82;21349;-90
2020/12/23 13:04:42;;;;;;;11.45;5.45;;;;;;;-2.58;86.89;101930.29;1712926;81;21171;-91
2020/12/23 13:07:10;;;;;;;10.40;6.05;;;;;;;-2.54;87.75;101936.23;1705682;82;21769;-91
2020/12/23 13:09:39;;;;;;;12.03;6.50;;;;;;;-2.57;87.28;101933.27;1651966;84;21159;-90
2020/12/23 13:12:07;;;;;;;10.93;6.55;;;;;;;-2.59;87.06;101934.95;1690788;82;21151;-91
2020/12/23 13:14:36;;;;;;;10.08;6.70;;;;;;;-2.60;87.24;101934.97;1698451;83;21214;-90
2020/12/23 13:17:04;;;;;;;10.95;6.55;;;;;;;-2.62;87.59;101934.11;1715651;81;21638;-90
2020/12/23 13:19:32;;;;;;;12.25;6.67;;;;;;;-2.60;88.29;101940.06;1713548;81;21271;-90
2020/12/23 13:22:01;;;;;;;14.75;8.85;;;;;;;-2.59;87.90;101935.39;1713419;81;21710;-90
2020/12/23 13:24:29;;;;;;;26.02;15.20;;;;;;;-2.60;88.13;101934.53;1716516;83;21143;-91
2020/12/23 13:26:57;;;;;;;23.05;13.70;;;;;;;-2.62;88.57;101934.98;1714884;81;21278;-91
2020/12/23 13:29:25;;;;;;;24.87;14.38;;;;;;;-2.64;89.28;101934.55;1712424;81;21155;-90
2020/12/23 13:31:53;;;;;;;31.82;14.80;;;;;;;-2.66;89.63;101934.53;1694295;83;21159;-91
2020/12/23 13:34:21;;;;;;;31.48;16.07;;;;;;;-2.68;90.35;101929.84;1685178;83;21186;-90
2020/12/23 13:36:57;;;;;;;26.15;14.70;;;;;;;-2.67;90.92;101934.09;1698845;83;21151;-90
2020/12/23 13:39:27;;;;;;;27.10;16.62;;;;;;;-2.66;91.51;101936.24;1712075;81;21463;-89
2020/12/23 13:41:55;;;;;;;22.27;13.18;;;;;;;-2.63;92.06;101931.99;1710329;80;21666;-89
2020/12/23 13:52:10;;;;;;;19.65;12.33;;;;;;;-2.60;90.36;101941.34;1726068;81;21200;-90
2020/12/23 13:54:38;;;;;;;26.95;13.93;;;;;;;-2.68;90.70;101939.20;1711803;80;22372;-89
2020/12/23 13:57:06;;;;;;;22.95;14.40;;;;;;;-2.71;91.01;101941.34;1702824;81;21063;-90
2020/12/23 13:59:34;;;;;;;20.75;13.75;;;;;;;-2.73;91.16;101939.20;1730115;81;21592;-90
2020/12/23 14:02:02;;;;;;;24.00;14.45;;;;;;;-2.75;91.24;101941.75;1700289;82;21126;-90
2020/12/23 14:04:38;;;;;;;21.70;13.43;;;;;;;-2.75;91.86;101934.11;1714108;83;21598;-89
2020/12/23 14:07:06;;;;;;;20.10;12.33;;;;;;;-2.69;92.83;101939.64;1713353;82;21601;-90
2020/12/23 14:09:36;;;;;;;20.80;12.28;;;;;;;-2.62;93.45;101943.91;1711044;81;21210;-90
2020/12/23 14:16:04;;;;;;;31.52;15.90;;;;;;;-2.51;94.03;101935.38;1713879;83;21167;-90
2020/12/23 14:18:33;;;;;;;24.07;14.15;;;;;;;-2.47;94.44;101929.45;1713094;83;21218;-90
2020/12/23 14:21:01;;;;;;;24.63;15.32;;;;;;;-2.40;95.01;101922.22;1691352;83;21376;-90
2020/12/23 14:23:29;;;;;;;24.98;13.88;;;;;;;-2.36;95.01;101918.80;1687896;84;21146;-90
2020/12/23 14:25:57;;;;;;;24.30;13.98;;;;;;;-2.35;94.99;101911.58;1693555;84;21594;-90
2020/12/23 14:28:25;;;;;;;18.52;11.63;;;;;;;-2.35;94.92;101914.13;1690592;83;21281;-91
2020/12/23 14:30:53;;;;;;;17.70;10.70;;;;;;;-2.34;94.91;101909.45;1709283;81;21201;-90
2020/12/23 14:33:21;;;;;;;21.25;13.25;;;;;;;-2.31;94.57;101911.14;1721658;80;22284;-90
2020/12/23 14:35:49;;;;;;;19.75;12.28;;;;;;;-2.32;93.67;101905.65;1697163;83;21197;-90
2020/12/23 14:38:17;;;;;;;30.62;15.38;;;;;;;-2.35;93.66;101910.30;1717121;81;21170;-90
2020/12/23 14:41:14;;;;;;;34.65;16.07;;;;;;;-2.35;93.97;101902.64;1715885;82;21665;-92
2020/12/23 14:43:42;;;;;;;40.60;18.40;;;;;;;-2.32;94.82;101905.20;1711353;83;21170;-91
2020/12/23 14:46:34;;;;;;;33.65;20.25;;;;;;;-2.25;95.51;101901.80;1716443;82;21643;-92
2020/12/23 14:49:03;;;;;;;38.08;19.25;;;;;;;-2.19;95.97;101900.95;1714631;81;21217;-90
2020/12/23 14:51:32;;;;;;;49.15;19.75;;;;;;;-2.14;96.07;101899.66;1718257;82;21189;-94
2020/12/23 14:54:00;;;;;;;55.83;24.63;;;;;;;-2.11;95.99;101908.17;1715088;82;21219;-90
2020/12/23 14:56:29;;;;;;;49.65;22.65;;;;;;;-2.10;95.91;101909.00;1714950;80;21608;-89
2020/12/23 14:58:58;;;;;;;39.58;20.35;;;;;;;-2.09;95.97;101904.33;1719785;80;21534;-90
2020/12/23 15:01:26;;;;;;;57.50;15.88;;;;;;;-2.12;95.47;101906.46;1733451;81;21170;-91
2020/12/23 15:03:54;;;;;;;32.13;13.72;;;;;;;-2.14;94.37;101906.05;1723100;81;21239;-91
2020/12/23 15:06:22;;;;;;;32.28;11.48;;;;;;;-2.19;93.56;101902.22;1723018;81;21158;-90
2020/12/23 15:08:53;;;;;;;26.50;11.20;;;;;;;-2.18;93.51;101908.16;1738822;81;21175;-90
2020/12/23 15:11:25;;;;;;;54.08;28.90;;;;;;;-2.19;92.59;101906.45;1726998;81;21237;-90
2020/12/23 15:13:53;;;;;;;70.32;35.58;;;;;;;-2.25;91.29;101905.63;1743148;81;21158;-90
2020/12/23 15:16:21;;;;;;;84.72;39.15;;;;;;;-2.29;91.03;101906.91;1728076;81;21306;-90
2020/12/23 15:18:49;;;;;;;121.15;56.15;;;;;;;-2.31;91.38;101909.88;1715408;81;21200;-90
2020/12/23 15:21:17;;;;;;;87.57;45.35;;;;;;;-2.33;91.25;101908.61;1733102;82;21668;-89
2020/12/23 15:23:45;;;;;;;80.67;42.85;;;;;;;-2.36;91.31;101909.88;1705185;82;21384;-90
2020/12/23 15:26:13;;;;;;;60.85;36.70;;;;;;;-2.37;92.16;101913.30;1700306;82;21192;-89
2020/12/23 15:28:42;;;;;;;47.33;28.10;;;;;;;-2.37;92.33;101910.75;1695964;83;21442;-90
2020/12/23 15:31:10;;;;;;;35.17;19.70;;;;;;;-2.36;92.70;101908.59;1708260;81;22456;-90
2020/12/23 15:33:38;;;;;;;27.02;16.07;;;;;;;-2.35;92.42;101905.20;1691268;84;21908;-89
2020/12/23 15:36:09;;;;;;;27.42;17.07;;;;;;;-2.38;92.14;101906.05;1686458;83;21217;-89
2020/12/23 15:38:38;;;;;;;23.32;15.18;;;;;;;-2.40;91.85;101920.50;1697668;83;21235;-89
2020/12/23 15:41:06;;;;;;;30.60;15.63;;;;;;;-2.44;91.94;101911.58;1714303;82;21149;-90
2020/12/23 15:43:35;;;;;;;22.73;14.53;;;;;;;-2.45;92.24;101912.45;1705764;82;21169;-90
2020/12/23 15:46:07;;;;;;;26.27;15.18;;;;;;;-2.47;92.38;101912.87;1719364;82;21163;-89
2020/12/23 15:48:35;;;;;;;27.60;15.78;;;;;;;-2.54;91.72;101903.95;1696753;81;21376;-89
2020/12/23 15:51:08;;;;;;;25.90;15.50;;;;;;;-2.57;91.53;101905.65;1718479;82;21206;-90
2020/12/23 15:53:36;;;;;;;28.85;16.17;;;;;;;-2.63;90.90;101898.84;1728585;80;21242;-90
2020/12/23 16:00:24;;;;;;;37.95;21.52;;;;;;;-2.67;90.58;101912.42;1709140;81;21237;-91
2020/12/23 16:02:52;;;;;;;31.27;19.87;;;;;;;-2.68;91.38;101918.80;1712989;81;21366;-91
2020/12/23 16:05:50;;;;;;;41.58;20.80;;;;;;;-2.67;90.93;101918.80;1713939;83;21612;-91
2020/12/23 16:08:18;;;;;;;32.03;19.67;;;;;;;-2.71;90.54;101919.66;1715532;82;21130;-91
2020/12/23 16:10:46;;;;;;;33.45;20.50;;;;;;;-2.73;90.57;101914.97;1711612;81;21110;-90
2020/12/23 16:13:16;;;;;;;37.67;23.07;;;;;;;-2.73;90.94;101916.25;1716247;81;21594;-90
2020/12/23 16:15:44;;;;;;;36.45;22.67;;;;;;;-2.70;91.16;101917.10;1688388;83;21084;-90
2020/12/23 16:18:12;;;;;;;36.93;22.98;;;;;;;-2.68;91.29;101917.09;1713380;81;21562;-90
2020/12/23 16:20:40;;;;;;;43.00;28.25;;;;;;;-2.68;90.97;101917.53;1732067;81;21436;-90
2020/12/23 16:23:28;;;;;;;47.93;31.70;;;;;;;-2.71;90.83;101912.01;1739575;81;21559;-90